createdAt,value
2022-12-19T00:09:42.043Z,69.70
2022-12-19T00:19:45.067Z,62.50
2022-12-19T00:29:49.267Z,52.80
2022-12-19T00:39:52.243Z,65.87
2022-12-19T00:49:56.752Z,65.03
2022-12-19T01:00:00.553Z,65.90
2022-12-19T01:10:05.575Z,65.30
2022-12-19T01:20:10.024Z,64.67
2022-12-19T01:30:15.379Z,63.17
2022-12-19T01:40:18.481Z,71.43
2022-12-19T01:50:28.192Z,58.87
2022-12-19T02:00:31.300Z,65.25
2022-12-19T02:10:37.695Z,67.13
2022-12-19T02:21:06.917Z,66.93
2022-12-19T02:31:18.028Z,64.83
2022-12-19T02:41:27.947Z,60.63
2022-12-19T02:51:35.661Z,67.87
2022-12-19T03:01:47.047Z,65.13
2022-12-19T03:12:03.455Z,56.47
2022-12-19T03:22:07.843Z,58.17
2022-12-19T03:32:15.281Z,60.53
2022-12-19T03:42:39.325Z,68.67
2022-12-19T03:52:53.713Z,63.30
2022-12-19T04:02:58.895Z,62.57
2022-12-19T04:13:07.150Z,65.93
2022-12-19T04:23:18.946Z,62.23
2022-12-19T04:33:23.470Z,54.00
2022-12-19T04:43:26.468Z,63.77
2022-12-19T04:53:31.415Z,65.40
2022-12-19T05:03:35.491Z,63.07
2022-12-19T05:13:39.715Z,56.53
2022-12-19T05:23:42.944Z,56.37
2022-12-19T05:33:48.168Z,63.03
2022-12-19T05:43:53.169Z,59.37
2022-12-19T05:53:57.596Z,53.40
2022-12-19T06:04:00.636Z,44.73
2022-12-19T06:14:05.032Z,44.43
2022-12-19T06:24:08.768Z,43.23
2022-12-19T06:34:32.960Z,52.27
2022-12-19T06:44:37.347Z,47.40
2022-12-19T06:54:41.623Z,49.07
2022-12-19T07:04:51.147Z,54.10
2022-12-19T07:14:56.397Z,55.37
2022-12-19T07:25:00.444Z,50.67
2022-12-19T07:35:04.941Z,49.00
2022-12-19T07:45:08.600Z,48.23
2022-12-19T07:55:13.480Z,52.27
2022-12-19T08:05:16.621Z,51.10
2022-12-19T08:15:21.141Z,52.40
2022-12-19T08:25:24.134Z,44.43
2022-12-19T08:35:28.444Z,49.77
2022-12-19T08:45:31.572Z,45.80
2022-12-19T08:55:36.787Z,49.97
2022-12-19T09:06:05.021Z,53.23
2022-12-19T09:16:14.165Z,55.60
2022-12-19T09:26:17.744Z,53.13
2022-12-19T09:36:24.411Z,47.00
2022-12-19T09:46:38.183Z,48.67
2022-12-19T09:56:46.937Z,53.93
2022-12-19T10:07:13.923Z,50.33
2022-12-19T10:17:26.325Z,51.90
2022-12-19T15:16:47.490Z,25.70
2022-12-19T15:26:54.972Z,33.00
2022-12-19T15:36:59.655Z,26.83
2022-12-19T15:47:05.036Z,28.00
2022-12-19T15:57:21.032Z,29.80
2022-12-19T16:17:48.968Z,26.33
2022-12-19T16:27:57.037Z,25.87
2022-12-19T16:38:01.314Z,21.17
2022-12-19T16:48:04.672Z,19.70
2022-12-19T16:58:15.880Z,23.50
2022-12-19T17:08:19.801Z,19.60
2022-12-19T17:18:28.167Z,23.53
2022-12-19T17:28:31.070Z,23.70
2022-12-19T17:38:35.806Z,24.33
2022-12-19T17:48:39.572Z,19.83
2022-12-19T17:58:44.170Z,20.60
2022-12-19T18:08:47.127Z,20.37
2022-12-19T18:18:51.552Z,14.93
2022-12-19T18:28:54.663Z,16.50
2022-12-19T18:38:59.088Z,15.27
2022-12-19T18:49:02.239Z,13.30
2022-12-19T18:59:07.832Z,15.27
2022-12-19T19:09:16.083Z,20.53
2022-12-19T19:19:20.796Z,12.77
2022-12-19T19:29:23.706Z,13.00
2022-12-19T19:39:28.671Z,6.80
2022-12-19T19:49:31.434Z,7.10
2022-12-19T19:59:35.597Z,4.10
2022-12-19T20:09:38.393Z,6.20
2022-12-19T20:19:42.705Z,4.97
2022-12-19T20:29:45.534Z,5.43
2022-12-19T20:39:49.772Z,5.73
2022-12-19T20:49:52.765Z,5.10
2022-12-19T20:59:57.273Z,6.47
2022-12-19T21:10:00.285Z,4.60
2022-12-19T21:20:05.207Z,10.07
2022-12-19T21:30:10.065Z,5.13
2022-12-19T21:40:15.356Z,4.80
2022-12-19T21:50:18.318Z,3.60
2022-12-19T22:00:23.221Z,5.00
2022-12-19T22:10:26.365Z,6.73
2022-12-19T22:20:30.683Z,4.33
2022-12-19T22:30:34.712Z,4.53
2022-12-19T22:40:39.854Z,3.37
2022-12-19T22:50:47.632Z,5.83
2022-12-19T23:00:52.138Z,4.53
2022-12-19T23:10:55.295Z,3.73
2022-12-19T23:21:09.602Z,5.40
2022-12-19T23:31:14.922Z,2.80
2022-12-19T23:41:19.355Z,5.57
2022-12-19T23:51:25.778Z,3.00
